Time;durP1;ratioP1;P1;durP2;ratioP2;P2;SDS_P1;SDS_P2;PMS_P1;PMS_P2;Temp;Humidity;BMP_temperature;BMP_pressure;BME280_temperature;BME280_humidity;BME280_pressure;Samples;Min_cycle;Max_cycle;Signal;HPM_P1;HPM_P2
2022/09/16 00:01:00;;;;;;;3.15;1.70;;;;;;;25.27;45.80;99718.61;1753276;81;21035;-76
2022/09/16 00:03:27;;;;;;;3.83;1.70;;;;;;;25.27;45.81;99706.09;1753230;81;21008;-76
2022/09/16 00:05:53;;;;;;;4.03;1.80;;;;;;;25.28;45.80;99708.28;1753416;81;21150;-76
2022/09/16 00:08:20;;;;;;;4.25;1.82;;;;;;;25.26;45.81;99707.25;1753052;81;21028;-76
2022/09/16 00:10:46;;;;;;;2.77;1.50;;;;;;;25.27;45.82;99720.59;1776280;80;21083;-76
2022/09/16 00:13:13;;;;;;;4.33;1.60;;;;;;;25.27;45.81;99721.98;1750751;81;21093;-76
2022/09/16 00:15:47;;;;;;;3.67;1.90;;;;;;;25.26;45.83;99713.41;1742894;80;21068;-76
2022/09/16 00:18:14;;;;;;;2.70;1.55;;;;;;;25.26;45.80;99722.56;1736665;81;21171;-76
2022/09/16 00:20:48;;;;;;;4.08;1.92;;;;;;;25.26;45.82;99712.02;1736662;81;20943;-76
2022/09/16 00:23:14;;;;;;;2.92;1.67;;;;;;;25.25;45.83;99715.39;1729449;81;20981;-75
2022/09/16 00:25:41;;;;;;;4.25;1.72;;;;;;;25.25;45.81;99715.39;1676796;85;21029;-75
2022/09/16 00:28:07;;;;;;;4.80;1.60;;;;;;;25.25;45.82;99713.99;1651494;85;21604;-76
2022/09/16 00:30:33;;;;;;;4.30;1.67;;;;;;;25.25;45.82;99709.82;1715198;83;21131;-75
2022/09/16 00:33:00;;;;;;;4.20;2.42;;;;;;;25.25;45.85;99700.69;1715465;82;21029;-75
2022/09/16 00:35:26;;;;;;;2.98;1.60;;;;;;;25.25;45.85;99704.25;1715347;82;21088;-75
2022/09/16 00:37:52;;;;;;;3.37;1.60;;;;;;;25.25;45.86;99695.13;1696815;83;21044;-75
2022/09/16 00:40:18;;;;;;;3.20;1.77;;;;;;;25.25;45.87;99707.03;1715240;82;21452;-75
2022/09/16 00:42:44;;;;;;;3.08;1.60;;;;;;;25.25;45.85;99705.64;1715153;82;21235;-75
2022/09/16 00:45:16;;;;;;;2.77;1.62;;;;;;;25.25;45.87;99710.44;1714937;83;21032;-75
2022/09/16 00:47:48;;;;;;;5.03;1.80;;;;;;;25.25;45.86;99712.60;1715170;82;21507;-75
2022/09/16 00:50:39;;;;;;;3.08;1.90;;;;;;;25.26;45.87;99718.98;1715095;83;21536;-75
2022/09/16 00:53:07;;;;;;;3.27;1.57;;;;;;;25.25;45.86;99717.39;1715565;83;21100;-75
2022/09/16 00:55:36;;;;;;;3.62;1.65;;;;;;;25.25;45.86;99711.83;1716436;82;21079;-75
2022/09/16 00:58:08;;;;;;;2.77;1.72;;;;;;;25.25;45.85;99719.56;1735790;82;21050;-75
2022/09/16 01:00:34;;;;;;;4.12;1.75;;;;;;;25.24;45.88;99711.02;1664815;85;21706;-75
2022/09/16 01:03:00;;;;;;;3.40;1.57;;;;;;;25.24;45.88;99713.00;1632010;85;21042;-75
2022/09/16 01:05:27;;;;;;;3.33;1.90;;;;;;;25.25;45.86;99707.66;1686347;83;21101;-75
2022/09/16 01:07:53;;;;;;;3.30;1.98;;;;;;;25.25;45.87;99701.47;1686166;83;21054;-75
2022/09/16 01:10:22;;;;;;;2.87;2.00;;;;;;;25.25;45.88;99700.69;1668090;84;21047;-75
2022/09/16 01:12:56;;;;;;;3.22;2.00;;;;;;;25.24;45.89;99702.67;1686427;83;21121;-75
2022/09/16 01:15:25;;;;;;;2.77;1.60;;;;;;;25.24;45.89;99698.49;1694794;81;21039;-75
2022/09/16 01:18:24;;;;;;;4.40;1.90;;;;;;;25.23;45.92;99698.27;1718846;82;20947;-75
2022/09/16 01:21:30;;;;;;;2.58;1.65;;;;;;;25.24;45.90;99697.69;1708783;82;21066;-75
2022/09/16 01:24:35;;;;;;;4.15;1.70;;;;;;;25.24;45.88;99697.69;1709064;82;21552;-76
2022/09/16 01:27:34;;;;;;;2.77;1.40;;;;;;;25.23;45.86;99696.07;1708792;82;21067;-76
2022/09/16 01:30:40;;;;;;;3.35;1.75;;;;;;;25.22;45.85;99693.88;1708507;83;21053;-76
2022/09/16 01:33:15;;;;;;;3.52;1.52;;;;;;;25.20;45.87;99692.08;1717986;82;21083;-75
2022/09/16 01:36:18;;;;;;;2.55;1.40;;;;;;;25.20;45.88;99690.68;1737748;82;21143;-75
2022/09/16 01:39:02;;;;;;;3.58;1.60;;;;;;;25.19;45.90;99695.22;1749568;80;21043;-76
2022/09/16 01:41:52;;;;;;;3.00;1.70;;;;;;;25.18;45.91;99706.94;1759826;79;21075;-75
2022/09/16 01:44:29;;;;;;;2.65;1.60;;;;;;;25.18;45.93;99704.73;1733586;81;21503;-76
2022/09/16 01:47:10;;;;;;;3.40;1.72;;;;;;;25.18;45.93;99705.55;1733924;82;20989;-75
2022/09/16 01:49:53;;;;;;;4.95;1.92;;;;;;;25.18;45.96;99710.31;1733285;81;21538;-76
2022/09/16 01:52:41;;;;;;;2.55;1.57;;;;;;;25.17;45.97;99712.28;1733485;82;21060;-76
2022/09/16 01:55:18;;;;;;;3.50;1.60;;;;;;;25.17;45.97;99716.46;1721255;82;21020;-76
2022/09/16 01:58:12;;;;;;;3.72;2.00;;;;;;;25.17;45.97;99708.11;1709415;82;20991;-76
2022/09/16 02:00:40;;;;;;;2.80;1.87;;;;;;;25.17;45.98;99713.68;1702819;84;21104;-75
2022/09/16 02:03:13;;;;;;;3.55;2.08;;;;;;;25.18;45.96;99722.83;1702867;83;21760;-76
2022/09/16 02:05:50;;;;;;;2.72;1.82;;;;;;;25.18;45.99;99722.83;1685666;83;21015;-76
2022/09/16 02:08:25;;;;;;;2.22;1.50;;;;;;;25.16;45.99;99719.05;1702638;84;21569;-76
2022/09/16 02:10:56;;;;;;;2.98;1.67;;;;;;;25.17;46.00;99722.03;1702707;82;21029;-76
2022/09/16 02:13:30;;;;;;;3.15;2.00;;;;;;;25.17;46.00;99726.20;1709790;83;20968;-76
2022/09/16 02:16:06;;;;;;;4.70;2.05;;;;;;;25.18;46.00;99722.83;1703653;82;21986;-76
2022/09/16 02:18:36;;;;;;;3.15;1.65;;;;;;;25.17;46.00;99716.46;1704992;83;21335;-76
2022/09/16 02:21:04;;;;;;;4.42;1.80;;;;;;;25.18;46.00;99708.92;1736099;82;21068;-76
2022/09/16 02:23:38;;;;;;;2.35;1.52;;;;;;;25.18;45.99;99706.94;1712127;82;21054;-76
2022/09/16 02:26:05;;;;;;;4.87;1.82;;;;;;;25.18;46.00;99706.94;1712204;82;21034;-76
2022/09/16 02:28:37;;;;;;;3.33;1.85;;;;;;;25.17;46.00;99706.72;1712332;83;21181;-76
2022/09/16 02:31:07;;;;;;;4.47;1.75;;;;;;;25.18;45.99;99719.47;1712148;82;21401;-76
2022/09/16 02:33:47;;;;;;;2.58;1.67;;;;;;;25.18;45.98;99712.50;1712140;82;21590;-76
2022/09/16 02:36:16;;;;;;;2.98;1.65;;;;;;;25.19;45.97;99710.53;1712676;83;20904;-75
2022/09/16 02:38:48;;;;;;;3.30;1.80;;;;;;;25.17;45.97;99712.88;1712130;82;21507;-76
2022/09/16 02:41:14;;;;;;;4.60;1.70;;;;;;;25.18;45.97;99711.11;1712373;83;21115;-75
2022/09/16 02:43:41;;;;;;;3.17;1.60;;;;;;;25.20;45.97;99707.97;1712290;82;21106;-75
2022/09/16 02:46:31;;;;;;;5.05;1.60;;;;;;;25.19;45.97;99707.75;1712018;82;21654;-75
2022/09/16 02:49:09;;;;;;;3.75;1.70;;;;;;;25.20;45.96;99719.10;1731083;81;21042;-76
2022/09/16 02:51:44;;;;;;;3.25;1.70;;;;;;;25.18;45.94;99716.68;1736275;81;21615;-76
2022/09/16 02:54:24;;;;;;;3.45;1.95;;;;;;;25.20;45.96;99719.91;1736591;81;21478;-76
2022/09/16 02:56:50;;;;;;;3.10;1.67;;;;;;;25.18;45.96;99722.83;1736531;82;21050;-76
2022/09/16 02:59:16;;;;;;;4.60;1.90;;;;;;;25.18;45.94;99733.38;1717818;82;21564;-75
2022/09/16 03:01:45;;;;;;;4.78;1.90;;;;;;;25.18;45.97;99734.77;1718246;81;21023;-75
2022/09/16 03:04:13;;;;;;;2.45;1.72;;;;;;;25.18;45.94;99732.58;1736565;81;21068;-76
2022/09/16 03:06:40;;;;;;;3.02;1.67;;;;;;;25.18;45.96;99737.56;1736827;82;21496;-75
2022/09/16 03:09:08;;;;;;;2.47;1.70;;;;;;;25.18;45.94;99722.25;1736480;81;21090;-75
2022/09/16 03:12:05;;;;;;;3.45;1.80;;;;;;;25.18;45.93;99720.86;1736607;82;21042;-76
2022/09/16 03:15:12;;;;;;;4.92;2.10;;;;;;;25.19;45.93;99718.87;1736969;82;21128;-75
2022/09/16 03:18:04;;;;;;;4.22;1.85;;;;;;;25.18;45.92;99718.66;1736135;82;21066;-75
2022/09/16 03:21:15;;;;;;;2.98;1.95;;;;;;;25.17;45.88;99708.11;1736856;81;21284;-76
2022/09/16 03:24:04;;;;;;;3.65;1.62;;;;;;;25.17;45.88;99712.28;1729681;82;21092;-76
2022/09/16 03:26:54;;;;;;;4.95;1.87;;;;;;;25.16;45.86;99700.16;1697838;81;21109;-76
2022/09/16 03:29:46;;;;;;;3.00;1.65;;;;;;;25.16;45.88;99695.98;1736499;81;21054;-76
2022/09/16 03:32:25;;;;;;;3.52;1.77;;;;;;;25.14;45.88;99697.73;1733254;81;21105;-76
2022/09/16 03:34:56;;;;;;;2.80;1.80;;;;;;;25.15;45.87;99694.37;1736364;81;21225;-76
2022/09/16 03:37:23;;;;;;;2.58;1.75;;;;;;;25.13;45.88;99701.69;1736656;81;21536;-76
2022/09/16 03:39:52;;;;;;;6.15;1.87;;;;;;;25.14;45.91;99711.65;1736891;81;21034;-76
2022/09/16 03:42:18;;;;;;;3.10;1.80;;;;;;;25.15;45.91;99706.89;1735941;81;21463;-76
2022/09/16 03:44:44;;;;;;;3.55;1.65;;;;;;;25.14;45.89;99718.61;1736862;82;21088;-76
2022/09/16 03:47:11;;;;;;;2.95;1.60;;;;;;;25.15;45.91;99715.24;1736906;82;21883;-76
2022/09/16 03:49:37;;;;;;;3.75;1.30;;;;;;;25.15;45.91;99720.22;1717615;81;21105;-76
2022/09/16 03:52:08;;;;;;;2.98;1.60;;;;;;;25.15;45.91;99718.83;1736736;81;21529;-76
2022/09/16 03:54:32;;;;;;;3.67;2.00;;;;;;;25.14;45.89;99715.83;1735567;81;21029;-76
2022/09/16 03:56:59;;;;;;;3.85;2.05;;;;;;;25.15;45.89;99714.66;1737941;81;21115;-75
2022/09/16 03:59:26;;;;;;;3.80;2.20;;;;;;;25.16;45.88;99721.03;1712922;82;21498;-75
2022/09/16 04:01:53;;;;;;;5.12;1.98;;;;;;;25.17;45.85;99715.66;1721154;82;21045;-75
2022/09/16 04:04:19;;;;;;;3.90;1.82;;;;;;;25.17;45.80;99715.66;1715094;82;21017;-75
2022/09/16 04:06:45;;;;;;;5.72;1.80;;;;;;;25.16;45.80;99712.09;1714829;83;21129;-75
2022/09/16 04:09:12;;;;;;;4.00;2.27;;;;;;;25.15;45.76;99713.84;1715249;83;21053;-75
2022/09/16 04:11:39;;;;;;;8.68;2.05;;;;;;;25.15;45.68;99714.66;1715316;83;21108;-75
2022/09/16 04:14:06;;;;;;;5.70;2.15;;;;;;;25.14;45.63;99718.61;1734339;81;21046;-75
2022/09/16 04:16:32;;;;;;;11.80;2.37;;;;;;;25.12;45.55;99714.61;1733081;82;21564;-75
2022/09/16 04:18:59;;;;;;;8.98;2.42;;;;;;;25.10;45.42;99720.53;1710453;83;21092;-76
2022/09/16 04:21:25;;;;;;;8.95;2.20;;;;;;;25.08;45.32;99706.80;1709914;82;21068;-75
2022/09/16 04:23:53;;;;;;;7.87;2.12;;;;;;;25.07;45.21;99712.95;1709462;82;21551;-75
2022/09/16 04:26:19;;;;;;;7.53;1.90;;;;;;;25.06;45.09;99716.09;1709730;82;21084;-75
2022/09/16 04:28:46;;;;;;;8.80;2.30;;;;;;;25.04;45.00;99720.63;1709041;82;21081;-75
2022/09/16 04:31:16;;;;;;;18.87;2.83;;;;;;;25.03;44.93;99712.09;1713020;82;21684;-75
2022/09/16 04:33:42;;;;;;;16.12;2.77;;;;;;;25.01;44.84;99711.06;1739346;81;21121;-75
2022/09/16 04:36:15;;;;;;;27.50;3.20;;;;;;;25.01;44.83;99715.81;1725824;81;21052;-76
2022/09/16 04:38:42;;;;;;;49.08;3.35;;;;;;;24.99;44.72;99721.75;1706251;82;21446;-78
2022/09/16 04:41:12;;;;;;;31.57;3.10;;;;;;;24.98;44.66;99724.34;1734052;81;21073;-78
2022/09/16 04:43:38;;;;;;;23.87;3.77;;;;;;;24.96;44.66;99716.12;1719653;81;21118;-76
2022/09/16 04:46:05;;;;;;;22.25;2.70;;;;;;;24.95;44.65;99730.62;1709542;81;21046;-77
2022/09/16 04:48:32;;;;;;;18.90;2.58;;;;;;;24.95;44.67;99736.80;1718445;81;21117;-78
2022/09/16 04:51:04;;;;;;;11.00;2.10;;;;;;;24.91;44.67;99729.77;1716195;81;21121;-77
2022/09/16 04:53:31;;;;;;;10.18;2.72;;;;;;;24.90;44.68;99742.09;1717018;81;21419;-75
2022/09/16 04:56:12;;;;;;;13.22;2.40;;;;;;;24.87;44.69;99739.23;1716039;81;21968;-75
2022/09/16 04:58:37;;;;;;;18.87;2.87;;;;;;;24.88;44.74;99743.04;1720727;81;22023;-75
2022/09/16 05:01:11;;;;;;;16.80;3.40;;;;;;;24.89;44.75;99747.44;1721329;81;21842;-77
2022/09/16 05:03:36;;;;;;;10.68;3.20;;;;;;;24.91;44.75;99747.05;1724987;81;21425;-76
2022/09/16 05:06:10;;;;;;;18.30;4.62;;;;;;;24.93;44.76;99744.70;1722318;81;20999;-76
2022/09/16 05:08:36;;;;;;;15.05;3.55;;;;;;;24.94;44.78;99748.52;1719648;81;21402;-77
2022/09/16 05:11:05;;;;;;;15.90;3.47;;;;;;;24.96;44.75;99764.83;1731163;81;21003;-78
2022/09/16 05:13:32;;;;;;;7.65;2.45;;;;;;;24.97;44.78;99767.83;1711618;82;21855;-77
2022/09/16 05:16:07;;;;;;;10.38;2.83;;;;;;;24.97;44.74;99771.42;1705380;82;21462;-77
2022/09/16 05:18:36;;;;;;;10.90;2.70;;;;;;;24.96;44.70;99773.98;1718698;81;21135;-76
2022/09/16 05:21:05;;;;;;;13.05;2.58;;;;;;;24.96;44.70;99769.00;1709720;81;22530;-76
2022/09/16 05:23:39;;;;;;;9.48;2.17;;;;;;;24.96;44.73;99767.02;1715797;81;21744;-79
2022/09/16 05:26:26;;;;;;;11.43;4.47;;;;;;;24.96;44.71;99764.23;1715883;81;21291;-78
2022/09/16 05:29:05;;;;;;;12.13;2.90;;;;;;;25.00;44.75;99774.84;1723246;81;21116;-78
2022/09/16 05:31:34;;;;;;;18.10;3.00;;;;;;;25.00;44.70;99771.25;1713801;81;21128;-77
2022/09/16 05:34:16;;;;;;;10.50;3.02;;;;;;;24.98;44.69;99773.03;1710382;82;21122;-78
2022/09/16 05:36:43;;;;;;;12.35;2.83;;;;;;;25.00;44.70;99767.88;1704593;82;21035;-77
2022/09/16 05:39:14;;;;;;;10.18;2.70;;;;;;;24.99;44.67;99763.48;1712020;82;21481;-77
2022/09/16 05:41:41;;;;;;;10.43;2.67;;;;;;;24.99;44.67;99768.27;1716654;81;21487;-78
2022/09/16 05:44:07;;;;;;;12.73;4.10;;;;;;;24.99;44.70;99766.88;1709729;82;21091;-78
2022/09/16 05:46:34;;;;;;;16.75;3.45;;;;;;;24.99;44.77;99762.09;1697778;82;21056;-78
2022/09/16 05:49:01;;;;;;;13.05;3.22;;;;;;;25.01;44.95;99765.91;1714937;81;21087;-77
2022/09/16 05:51:35;;;;;;;17.55;3.10;;;;;;;25.03;45.04;99770.53;1717119;81;21199;-78
2022/09/16 05:54:01;;;;;;;19.25;4.00;;;;;;;25.04;45.19;99774.89;1738594;80;21048;-75
2022/09/16 05:56:29;;;;;;;27.48;4.22;;;;;;;25.06;45.32;99773.95;1739165;80;21102;-75
2022/09/16 05:58:57;;;;;;;28.87;3.52;;;;;;;25.09;45.46;99777.37;1730902;81;21510;-78
2022/09/16 06:01:28;;;;;;;20.37;3.02;;;;;;;25.10;45.59;99788.73;1708969;80;21074;-79
2022/09/16 06:03:55;;;;;;;12.07;3.22;;;;;;;25.12;45.70;99780.80;1742186;80;21127;-80
2022/09/16 06:06:28;;;;;;;12.82;2.50;;;;;;;25.13;45.79;99770.46;1735985;80;21494;-79
2022/09/16 06:09:06;;;;;;;22.58;4.58;;;;;;;25.13;45.76;99774.05;1716763;82;21050;-79
2022/09/16 06:11:42;;;;;;;17.12;3.35;;;;;;;25.13;45.77;99767.09;1720299;81;21108;-77
2022/09/16 06:14:08;;;;;;;16.25;3.35;;;;;;;25.12;45.80;99776.61;1723704;81;21107;-78
2022/09/16 06:16:35;;;;;;;16.65;3.10;;;;;;;25.13;45.81;99781.59;1711939;81;21260;-77
2022/09/16 06:19:03;;;;;;;13.68;3.60;;;;;;;25.13;45.82;99787.97;1711680;82;21425;-77
2022/09/16 06:21:29;;;;;;;17.15;3.45;;;;;;;25.14;45.81;99795.16;1727048;81;21120;-78
2022/09/16 06:23:56;;;;;;;13.38;2.70;;;;;;;25.13;45.79;99790.75;1700487;82;21194;-77
2022/09/16 06:26:25;;;;;;;13.25;3.10;;;;;;;25.13;45.77;99794.93;1724570;81;21141;-77
2022/09/16 06:28:51;;;;;;;9.38;2.60;;;;;;;25.12;45.76;99796.09;1726904;81;21935;-76
2022/09/16 06:31:22;;;;;;;12.07;2.77;;;;;;;25.11;45.80;99790.34;1714310;81;21058;-76
2022/09/16 06:33:51;;;;;;;11.78;2.62;;;;;;;25.12;45.80;99793.31;1719744;82;21080;-76
2022/09/16 06:36:22;;;;;;;14.07;5.58;;;;;;;25.13;45.81;99799.69;1709644;81;21106;-76
2022/09/16 06:38:50;;;;;;;14.28;3.80;;;;;;;25.14;45.94;99796.55;1722782;81;21070;-76
2022/09/16 06:41:18;;;;;;;13.55;3.33;;;;;;;25.16;46.17;99800.36;1716644;81;21101;-78
2022/09/16 06:43:44;;;;;;;13.80;2.95;;;;;;;25.16;46.38;99792.81;1707057;81;21050;-76
2022/09/16 06:46:14;;;;;;;10.03;3.40;;;;;;;25.18;46.59;99790.45;1698881;83;21097;-78
2022/09/16 06:48:44;;;;;;;13.18;3.42;;;;;;;25.20;46.70;99787.30;1708315;81;21084;-78
2022/09/16 06:51:16;;;;;;;15.98;3.35;;;;;;;25.18;46.62;99795.20;1711849;81;21102;-77
2022/09/16 06:53:43;;;;;;;14.10;3.70;;;;;;;25.20;46.68;99797.85;1700985;82;21136;-77
2022/09/16 06:56:12;;;;;;;22.85;3.20;;;;;;;25.21;46.74;99798.62;1730371;81;21693;-78
2022/09/16 06:58:42;;;;;;;14.23;4.05;;;;;;;25.23;46.80;99808.81;1735844;81;21687;-79
2022/09/16 07:01:14;;;;;;;48.73;4.47;;;;;;;25.25;47.03;99816.22;1706279;81;21685;-79
2022/09/16 07:03:42;;;;;;;33.78;4.67;;;;;;;25.25;47.04;99820.40;1724983;81;21092;-77
2022/09/16 07:06:09;;;;;;;19.32;4.90;;;;;;;25.26;47.10;99817.22;1721734;81;21190;-77
2022/09/16 07:08:36;;;;;;;10.23;3.30;;;;;;;25.28;47.18;99814.88;1711867;81;22029;-79
2022/09/16 07:11:11;;;;;;;11.20;3.17;;;;;;;25.28;47.17;99811.29;1708396;82;21048;-76
2022/09/16 07:13:38;;;;;;;15.43;3.37;;;;;;;25.30;47.07;99807.53;1724125;81;21017;-77
2022/09/16 07:16:07;;;;;;;18.48;2.65;;;;;;;25.28;46.98;99806.53;1724321;81;21667;-76
2022/09/16 07:18:37;;;;;;;11.22;2.90;;;;;;;25.27;46.83;99807.70;1726629;81;21439;-76
2022/09/16 07:21:10;;;;;;;9.55;2.72;;;;;;;25.28;46.72;99812.09;1722389;82;21488;-77
2022/09/16 07:23:37;;;;;;;11.12;5.50;;;;;;;25.28;46.59;99814.88;1724514;81;21098;-75
2022/09/16 07:26:06;;;;;;;14.40;4.50;;;;;;;25.30;46.50;99824.23;1716695;81;21175;-76
2022/09/16 07:28:33;;;;;;;7.92;2.98;;;;;;;25.29;46.48;99827.60;1705042;82;21113;-74
2022/09/16 07:31:02;;;;;;;12.18;3.47;;;;;;;25.29;46.42;99824.82;1717339;81;21130;-74
2022/09/16 07:33:32;;;;;;;10.80;2.90;;;;;;;25.29;46.40;99827.60;1709197;81;21165;-74
2022/09/16 07:35:59;;;;;;;10.82;3.00;;;;;;;25.32;46.41;99830.25;1708943;81;21374;-73
2022/09/16 07:38:26;;;;;;;12.43;2.95;;;;;;;25.32;46.42;99823.29;1710226;81;21620;-75
2022/09/16 07:40:58;;;;;;;8.18;2.75;;;;;;;25.32;46.48;99826.07;1701713;82;21123;-76
2022/09/16 07:43:25;;;;;;;10.68;3.58;;;;;;;25.34;46.60;99835.64;1687520;82;21121;-77
2022/09/16 07:45:56;;;;;;;14.33;3.10;;;;;;;25.34;46.86;99828.69;1695447;83;21141;-77
2022/09/16 07:48:24;;;;;;;12.75;3.27;;;;;;;25.36;46.96;99823.56;1719048;81;20959;-76
2022/09/16 07:50:59;;;;;;;14.38;4.22;;;;;;;25.38;46.90;99829.55;1706033;82;21042;-74
2022/09/16 07:53:28;;;;;;;21.12;4.83;;;;;;;25.53;48.28;99832.02;1688793;82;38369;-75
2022/09/16 07:55:58;;;;;;;23.52;3.92;;;;;;;25.53;48.28;99832.02;1700537;84;21466;-76
2022/09/16 07:58:25;;;;;;;;;;;;;;;25.58;48.31;99840.64;1699977;82;21108;-78
2022/09/16 08:00:51;;;;;;;22.13;3.35;;;;;;;25.59;48.25;99838.08;1719234;81;20268;-76
2022/09/16 08:03:18;;;;;;;13.98;3.05;;;;;;;25.59;48.17;99839.47;1713281;82;21060;-78
2022/09/16 08:05:45;;;;;;;17.05;2.65;;;;;;;25.59;48.15;99838.85;1722542;82;21451;-78
2022/09/16 08:08:15;;;;;;;18.35;2.92;;;;;;;25.61;48.09;99839.30;1723455;81;21629;-77
2022/09/16 08:10:42;;;;;;;14.63;2.62;;;;;;;25.61;48.03;99842.08;1699790;81;21482;-76
2022/09/16 08:13:08;;;;;;;13.70;2.92;;;;;;;25.61;47.90;99837.09;1706412;82;21558;-77
2022/09/16 08:15:35;;;;;;;10.23;2.40;;;;;;;25.60;47.77;99835.48;1706644;81;21103;-77
2022/09/16 08:18:02;;;;;;;10.88;4.55;;;;;;;25.61;47.57;99838.48;1724291;81;21096;-76
2022/09/16 08:20:29;;;;;;;9.18;3.20;;;;;;;25.60;47.48;99834.89;1732214;81;21149;-76
2022/09/16 08:22:56;;;;;;;8.15;2.90;;;;;;;25.60;47.43;99834.09;1690919;82;21083;-77
2022/09/16 08:25:23;;;;;;;11.95;3.30;;;;;;;25.60;47.41;99832.70;1698073;82;21058;-76
2022/09/16 08:27:51;;;;;;;12.53;3.37;;;;;;;25.59;47.33;99832.50;1691115;82;21113;-79
2022/09/16 08:30:18;;;;;;;10.05;2.92;;;;;;;25.60;47.28;99836.88;1701932;82;21631;-77
2022/09/16 08:32:44;;;;;;;10.68;3.85;;;;;;;25.60;47.15;99830.72;1718118;81;21048;-78
2022/09/16 08:35:13;;;;;;;8.23;2.67;;;;;;;25.60;47.04;99826.54;1713176;82;21076;-77
2022/09/16 08:37:40;;;;;;;8.55;3.00;;;;;;;25.60;46.96;99822.95;1687704;82;21074;-78
2022/09/16 08:40:07;;;;;;;13.53;3.27;;;;;;;25.60;46.80;99827.94;1734500;82;21074;-78
2022/09/16 08:42:54;;;;;;;10.85;2.95;;;;;;;25.62;46.76;99827.57;1718999;81;21129;-76
2022/09/16 08:45:44;;;;;;;13.93;3.08;;;;;;;25.61;46.71;99825.95;1719422;81;21379;-74
2022/09/16 08:48:34;;;;;;;12.75;3.58;;;;;;;25.61;46.85;99823.17;1723836;81;21185;-75
2022/09/16 08:51:01;;;;;;;18.75;2.67;;;;;;;25.62;47.16;99832.55;1703988;81;21097;-76
2022/09/16 08:53:58;;;;;;;6.97;2.62;;;;;;;25.65;47.32;99836.56;1722294;81;21524;-78
2022/09/16 08:56:26;;;;;;;14.15;2.90;;;;;;;25.68;47.26;99838.59;1719280;81;21140;-77
2022/09/16 08:58:55;;;;;;;14.85;3.20;;;;;;;25.69;47.17;99838.81;1710531;81;22001;-77
2022/09/16 09:01:27;;;;;;;19.10;3.20;;;;;;;25.70;47.40;99835.66;1722584;81;21089;-76
2022/09/16 09:03:54;;;;;;;16.60;2.08;;;;;;;25.72;47.63;99824.12;1728229;81;21069;-76
2022/09/16 09:06:53;;;;;;;11.50;1.98;;;;;;;25.74;47.57;99825.37;1714197;81;21074;-76
2022/09/16 09:09:47;;;;;;;17.55;1.92;;;;;;;25.75;47.24;99819.20;1725126;81;22172;-76
2022/09/16 09:12:39;;;;;;;4.90;2.30;;;;;;;25.76;47.03;99821.59;1722305;81;21171;-76
2022/09/16 09:15:35;;;;;;;7.00;1.90;;;;;;;25.76;46.77;99824.97;1709068;81;21125;-76
2022/09/16 09:18:39;;;;;;;9.20;2.58;;;;;;;25.75;46.69;99816.42;1712458;81;21159;-76
2022/09/16 09:21:35;;;;;;;8.60;2.50;;;;;;;25.74;46.50;99820.38;1691124;83;21611;-76
2022/09/16 09:24:52;;;;;;;5.58;2.65;;;;;;;25.74;46.23;99821.19;1702333;82;21104;-76
2022/09/16 09:27:45;;;;;;;6.10;2.35;;;;;;;25.73;46.04;99816.79;1642908;85;21121;-76
2022/09/16 09:30:26;;;;;;;4.08;2.42;;;;;;;25.73;45.80;99816.79;1650723;84;21225;-75
2022/09/16 09:33:36;;;;;;;6.50;2.58;;;;;;;25.73;45.62;99817.37;1686514;82;21410;-76
2022/09/16 09:36:33;;;;;;;9.30;4.20;;;;;;;25.73;45.55;99813.20;1722000;80;21325;-76
2022/09/16 09:39:11;;;;;;;8.53;3.45;;;;;;;25.73;45.56;99820.16;1687202;83;21665;-76
2022/09/16 09:41:43;;;;;;;6.53;2.62;;;;;;;25.75;45.53;99808.06;1690686;83;21169;-78
2022/09/16 09:44:47;;;;;;;8.45;2.55;;;;;;;25.73;45.36;99815.98;1696867;83;21144;-76
2022/09/16 09:47:21;;;;;;;11.95;2.30;;;;;;;25.74;45.33;99809.23;1715224;81;21039;-75
2022/09/16 09:49:53;;;;;;;10.28;2.95;;;;;;;25.73;45.33;99800.66;1676201;83;22474;-76
2022/09/16 09:52:37;;;;;;;10.72;2.70;;;;;;;25.73;45.46;99811.22;1684510;82;21126;-76
2022/09/16 09:55:18;;;;;;;17.73;2.20;;;;;;;25.73;45.59;99825.73;1688751;83;21143;-76
2022/09/16 09:58:19;;;;;;;13.75;1.85;;;;;;;25.76;45.55;99822.19;1677773;83;21029;-75
2022/09/16 10:00:46;;;;;;;9.78;1.45;;;;;;;25.80;45.39;99828.64;1712223;80;21473;-76
2022/09/16 10:03:16;;;;;;;13.35;2.00;;;;;;;25.82;45.28;99828.47;1712998;80;21642;-76
2022/09/16 10:05:44;;;;;;;4.87;1.60;;;;;;;25.86;45.32;99828.52;1714557;81;21254;-76
2022/09/16 10:08:27;;;;;;;9.88;1.60;;;;;;;25.87;45.52;99829.54;1689442;83;21775;-76
2022/09/16 10:10:56;;;;;;;5.87;1.40;;;;;;;25.88;45.45;99828.95;1670319;83;21434;-75
2022/09/16 10:13:24;;;;;;;7.47;1.98;;;;;;;25.87;45.08;99836.51;1691863;82;21060;-75
2022/09/16 10:15:54;;;;;;;3.25;2.30;;;;;;;25.88;44.88;99840.09;1713150;82;21075;-76
2022/09/16 10:18:28;;;;;;;5.20;1.80;;;;;;;25.87;44.62;99848.23;1716856;80;20992;-75
2022/09/16 10:21:10;;;;;;;8.05;1.80;;;;;;;25.87;44.35;99844.87;1743148;80;21166;-76
2022/09/16 10:23:38;;;;;;;6.35;1.47;;;;;;;25.88;44.30;99841.50;1714356;82;21523;-76
2022/09/16 10:26:18;;;;;;;5.78;1.40;;;;;;;25.87;44.24;99846.27;1732812;81;21090;-75
2022/09/16 10:29:01;;;;;;;5.72;2.60;;;;;;;25.88;43.97;99854.84;1731661;81;21165;-76
2022/09/16 10:31:40;;;;;;;9.70;3.05;;;;;;;25.87;43.88;99839.30;1734297;79;21581;-75
2022/09/16 10:34:27;;;;;;;7.72;2.30;;;;;;;25.85;43.89;99838.85;1731333;80;21129;-76
2022/09/16 10:37:04;;;;;;;5.58;2.27;;;;;;;25.86;43.89;99849.41;1713214;82;21133;-77
2022/09/16 10:39:31;;;;;;;4.45;1.52;;;;;;;25.85;43.79;99843.62;1730530;81;21055;-76
2022/09/16 10:41:58;;;;;;;5.67;1.50;;;;;;;25.85;43.67;99839.44;1728043;81;21053;-76
2022/09/16 10:44:32;;;;;;;4.08;1.70;;;;;;;25.85;43.59;99847.21;1725020;81;21112;-76
2022/09/16 10:47:07;;;;;;;6.03;2.02;;;;;;;25.85;43.39;99845.02;1744180;79;21231;-75
2022/09/16 10:49:48;;;;;;;6.28;1.90;;;;;;;25.87;43.22;99845.45;1725397;81;21646;-74
2022/09/16 10:52:25;;;;;;;6.25;1.70;;;;;;;25.87;43.18;99836.51;1750790;80;21445;-75
2022/09/16 10:54:52;;;;;;;10.18;1.80;;;;;;;25.86;43.21;99839.66;1714929;81;21080;-76
2022/09/16 10:57:27;;;;;;;15.72;1.98;;;;;;;25.87;43.39;99836.51;1742517;80;21104;-76
2022/09/16 11:00:26;;;;;;;9.10;1.82;;;;;;;25.89;43.63;99841.09;1745281;80;22598;-76
2022/09/16 11:03:27;;;;;;;21.35;1.92;;;;;;;25.90;43.94;99841.31;1714470;81;21060;-75
2022/09/16 11:06:21;;;;;;;13.40;1.82;;;;;;;25.96;44.11;99839.61;1731908;80;21102;-74
2022/09/16 11:08:59;;;;;;;6.37;1.25;;;;;;;25.98;44.38;99828.86;1719455;81;21056;-78
2022/09/16 11:12:06;;;;;;;6.62;1.45;;;;;;;25.98;44.17;99838.03;1743218;80;22306;-73
2022/09/16 11:15:10;;;;;;;7.33;1.30;;;;;;;25.99;43.82;99836.86;1708219;82;21996;-73
2022/09/16 11:18:02;;;;;;;10.20;1.22;;;;;;;25.99;43.60;99821.53;1741239;80;21080;-75
2022/09/16 11:20:52;;;;;;;7.25;0.98;;;;;;;26.00;43.20;99828.72;1736875;80;21084;-73
2022/09/16 11:23:26;;;;;;;5.75;1.70;;;;;;;26.01;42.83;99823.95;1725104;81;21193;-74
2022/09/16 11:26:18;;;;;;;4.58;1.60;;;;;;;26.02;42.61;99819.38;1738717;81;21121;-74
2022/09/16 11:29:22;;;;;;;5.97;1.40;;;;;;;26.02;42.54;99822.16;1758163;80;21040;-75
2022/09/16 11:32:34;;;;;;;5.95;1.80;;;;;;;26.01;42.34;99806.64;1733622;81;20961;-74
2022/09/16 11:35:27;;;;;;;3.02;1.50;;;;;;;26.02;42.26;99808.81;1752198;80;21043;-74
2022/09/16 11:38:37;;;;;;;3.22;1.87;;;;;;;26.01;42.10;99799.67;1731280;81;21119;-74
2022/09/16 11:41:02;;;;;;;3.70;1.37;;;;;;;26.01;42.02;99798.86;1708603;83;21115;-75
2022/09/16 11:44:14;;;;;;;5.17;1.75;;;;;;;26.00;41.96;99789.70;1733100;80;22375;-75
2022/09/16 11:46:59;;;;;;;4.37;1.30;;;;;;;26.00;41.79;99784.71;1707273;81;21156;-75
2022/09/16 11:49:49;;;;;;;4.70;1.37;;;;;;;26.01;41.68;99780.16;1729826;80;21561;-73
2022/09/16 11:52:33;;;;;;;7.65;1.35;;;;;;;26.01;41.60;99786.33;1721155;82;21035;-73
2022/09/16 11:55:26;;;;;;;10.48;1.82;;;;;;;26.02;41.71;99785.92;1719400;82;21138;-74
2022/09/16 11:58:00;;;;;;;11.57;1.90;;;;;;;26.04;41.81;99782.19;1687065;83;21140;-73
2022/09/16 12:00:27;;;;;;;19.52;2.45;;;;;;;26.07;41.89;99773.64;1681665;83;21079;-74
2022/09/16 12:03:13;;;;;;;3.98;1.10;;;;;;;26.09;42.10;99785.23;1708457;82;21055;-75
2022/09/16 12:05:52;;;;;;;9.43;1.22;;;;;;;26.11;42.12;99777.27;1690382;83;21143;-74